sensor_id;sensor_type;location;lat;lon;timestamp;pressure;altitude;pressure_sealevel;temperature;humidity
46506;BME280;32220;49.808;9.968;2022-11-27T09:16:42;99982.03;;;1.87;100.00
46506;BME280;32220;49.808;9.968;2022-11-27T09:19:10;99971.88;;;2.40;100.00
46506;BME280;32220;49.808;9.968;2022-11-27T09:21:38;99960.84;;;2.86;100.00
46506;BME280;32220;49.808;9.968;2022-11-27T09:24:06;99962.13;;;3.19;100.00
46506;BME280;32220;49.808;9.968;2022-11-27T09:26:34;99955.63;;;3.43;100.00
46506;BME280;32220;49.808;9.968;2022-11-27T09:29:01;99961.56;;;3.54;100.00
46506;BME280;32220;49.808;9.968;2022-11-27T09:31:29;99959.66;;;3.64;100.00
46506;BME280;32220;49.808;9.968;2022-11-27T09:33:58;99968.13;;;3.78;100.00
46506;BME280;32220;49.808;9.968;2022-11-27T09:36:25;99975.63;;;3.97;99.81
46506;BME280;32220;49.808;9.968;2022-11-27T09:38:53;99968.34;;;4.15;98.64
46506;BME280;32220;49.808;9.968;2022-11-27T09:41:33;99966.13;;;4.38;97.07
46506;BME280;32220;49.808;9.968;2022-11-27T09:44:15;99964.06;;;4.55;95.44
46506;BME280;32220;49.808;9.968;2022-11-27T09:46:44;99950.53;;;4.74;94.12
46506;BME280;32220;49.808;9.968;2022-11-27T09:49:17;99954.81;;;4.79;92.58
46506;BME280;32220;49.808;9.968;2022-11-27T09:51:50;99944.97;;;4.89;91.78
46506;BME280;32220;49.808;9.968;2022-11-27T09:54:23;99931.75;;;4.93;91.65
46506;BME280;32220;49.808;9.968;2022-11-27T09:56:53;99938.66;;;4.96;91.43
46506;BME280;32220;49.808;9.968;2022-11-27T09:59:26;99931.63;;;4.98;91.03
46506;BME280;32220;49.808;9.968;2022-11-27T10:01:56;99927.09;;;5.06;90.31
46506;BME280;32220;49.808;9.968;2022-11-27T10:04:25;99920.91;;;5.07;89.83
46506;BME280;32220;49.808;9.968;2022-11-27T10:07:09;99918.81;;;5.21;89.92
46506;BME280;32220;49.808;9.968;2022-11-27T10:09:52;99912.53;;;5.28;89.56
46506;BME280;32220;49.808;9.968;2022-11-27T10:12:31;99904.66;;;5.28;88.45
46506;BME280;32220;49.808;9.968;2022-11-27T10:15:06;99898.38;;;5.34;88.97
46506;BME280;32220;49.808;9.968;2022-11-27T10:17:39;99906.94;;;5.42;88.48
46506;BME280;32220;49.808;9.968;2022-11-27T10:20:20;99879.97;;;5.35;88.44
46506;BME280;32220;49.808;9.968;2022-11-27T10:22:59;99916.25;;;5.55;87.49
46506;BME280;32220;49.808;9.968;2022-11-27T10:25:32;99921.38;;;5.60;87.91
46506;BME280;32220;49.808;9.968;2022-11-27T10:28:11;99916.19;;;5.57;88.13
46506;BME280;32220;49.808;9.968;2022-11-27T10:30:46;99917.53;;;5.73;87.39
46506;BME280;32220;49.808;9.968;2022-11-27T10:33:19;99910.28;;;5.81;87.26
46506;BME280;32220;49.808;9.968;2022-11-27T10:35:50;99901.31;;;5.91;87.55
46506;BME280;32220;49.808;9.968;2022-11-27T10:38:21;99892.63;;;5.89;86.70
46506;BME280;32220;49.808;9.968;2022-11-27T10:40:53;99898.22;;;6.08;86.36
46506;BME280;32220;49.808;9.968;2022-11-27T10:43:25;99881.16;;;6.23;86.09
46506;BME280;32220;49.808;9.968;2022-11-27T10:45:55;99860.88;;;6.26;85.47
46506;BME280;32220;49.808;9.968;2022-11-27T10:48:24;99876.91;;;6.48;84.93
46506;BME280;32220;49.808;9.968;2022-11-27T10:50:54;99836.69;;;6.43;84.91
46506;BME280;32220;49.808;9.968;2022-11-27T10:53:26;99864.19;;;6.62;83.57
46506;BME280;32220;49.808;9.968;2022-11-27T10:56:18;99838.81;;;6.60;83.36
46506;BME280;32220;49.808;9.968;2022-11-27T10:58:53;99818.72;;;6.57;83.35
46506;BME280;32220;49.808;9.968;2022-11-27T11:01:23;99827.34;;;6.62;83.88
46506;BME280;32220;49.808;9.968;2022-11-27T11:04:04;99834.94;;;6.71;83.68
46506;BME280;32220;49.808;9.968;2022-11-27T11:06:37;99841.13;;;6.70;82.81
46506;BME280;32220;49.808;9.968;2022-11-27T11:09:12;99835.84;;;6.70;83.31
46506;BME280;32220;49.808;9.968;2022-11-27T11:11:41;99815.81;;;6.66;83.09
46506;BME280;32220;49.808;9.968;2022-11-27T11:14:17;99821.59;;;6.77;83.69
46506;BME280;32220;49.808;9.968;2022-11-27T11:16:46;99793.66;;;6.73;83.24
46506;BME280;32220;49.808;9.968;2022-11-27T11:19:22;99801.09;;;6.87;82.64
46506;BME280;32220;49.808;9.968;2022-11-27T11:21:51;99792.75;;;7.01;82.37
46506;BME280;32220;49.808;9.968;2022-11-27T11:24:24;99806.03;;;7.24;82.42
46506;BME280;32220;49.808;9.968;2022-11-27T11:26:54;99801.63;;;7.49;82.05
46506;BME280;32220;49.808;9.968;2022-11-27T11:29:28;99798.19;;;7.72;81.73
46506;BME280;32220;49.808;9.968;2022-11-27T11:32:04;99784.66;;;7.81;81.52
46506;BME280;32220;49.808;9.968;2022-11-27T11:34:33;99795.41;;;8.00;80.89
46506;BME280;32220;49.808;9.968;2022-11-27T11:37:05;99791.56;;;8.09;81.05
46506;BME280;32220;49.808;9.968;2022-11-27T11:39:39;99787.13;;;8.09;79.78
46506;BME280;32220;49.808;9.968;2022-11-27T11:42:17;99772.13;;;8.11;79.45
46506;BME280;32220;49.808;9.968;2022-11-27T11:44:49;99773.13;;;8.30;79.45
46506;BME280;32220;49.808;9.968;2022-11-27T11:47:19;99786.03;;;8.61;79.10
46506;BME280;32220;49.808;9.968;2022-11-27T11:49:48;99778.28;;;8.79;79.08
46506;BME280;32220;49.808;9.968;2022-11-27T11:52:25;99775.22;;;8.89;78.39
46506;BME280;32220;49.808;9.968;2022-11-27T11:54:59;99786.84;;;9.06;77.84
46506;BME280;32220;49.808;9.968;2022-11-27T12:00:41;99782.66;;;9.22;75.69
46506;BME280;32220;49.808;9.968;2022-11-27T12:03:24;99776.56;;;9.40;75.59
46506;BME280;32220;49.808;9.968;2022-11-27T12:06:04;99777.63;;;9.56;73.56
46506;BME280;32220;49.808;9.968;2022-11-27T12:08:56;99763.44;;;10.17;73.60
46506;BME280;32220;49.808;9.968;2022-11-27T12:11:32;99735.34;;;11.22;70.56
46506;BME280;32220;49.808;9.968;2022-11-27T12:14:14;99759.78;;;12.12;68.50
46506;BME280;32220;49.808;9.968;2022-11-27T12:16:52;99762.34;;;11.98;65.52
46506;BME280;32220;49.808;9.968;2022-11-27T12:19:42;99758.63;;;11.67;66.58
46506;BME280;32220;49.808;9.968;2022-11-27T12:22:21;99755.53;;;11.42;66.65
46506;BME280;32220;49.808;9.968;2022-11-27T12:25:02;99749.75;;;11.16;66.46
46506;BME280;32220;49.808;9.968;2022-11-27T12:27:44;99735.09;;;10.92;66.84
46506;BME280;32220;49.808;9.968;2022-11-27T12:30:20;99736.78;;;10.76;66.10
46506;BME280;32220;49.808;9.968;2022-11-27T12:33:04;99745.16;;;10.67;67.62
46506;BME280;32220;49.808;9.968;2022-11-27T12:35:41;99740.56;;;10.34;66.26
46506;BME280;32220;49.808;9.968;2022-11-27T12:38:21;99758.75;;;10.23;66.84
46506;BME280;32220;49.808;9.968;2022-11-27T12:41:04;99726.81;;;9.89;68.16
46506;BME280;32220;49.808;9.968;2022-11-27T12:43:42;99752.19;;;9.93;67.84
46506;BME280;32220;49.808;9.968;2022-11-27T12:46:15;99744.47;;;9.88;68.49
46506;BME280;32220;49.808;9.968;2022-11-27T12:48:50;99729.59;;;9.86;68.30
46506;BME280;32220;49.808;9.968;2022-11-27T12:51:21;99725.09;;;9.88;67.90
46506;BME280;32220;49.808;9.968;2022-11-27T12:53:54;99705.78;;;9.86;67.81
46506;BME280;32220;49.808;9.968;2022-11-27T12:56:29;99721.78;;;10.01;67.21
46506;BME280;32220;49.808;9.968;2022-11-27T12:59:03;99697.69;;;10.07;67.64
46506;BME280;32220;49.808;9.968;2022-11-27T13:01:40;99709.59;;;10.36;67.92
46506;BME280;32220;49.808;9.968;2022-11-27T13:04:17;99708.06;;;10.50;67.98
46506;BME280;32220;49.808;9.968;2022-11-27T13:06:52;99711.66;;;10.49;66.33
46506;BME280;32220;49.808;9.968;2022-11-27T13:09:26;99722.25;;;10.49;66.02
46506;BME280;32220;49.808;9.968;2022-11-27T13:11:59;99716.28;;;10.43;66.19
46506;BME280;32220;49.808;9.968;2022-11-27T13:14:29;99697.56;;;10.29;65.91
46506;BME280;32220;49.808;9.968;2022-11-27T13:17:03;99676.06;;;10.17;65.47
46506;BME280;32220;49.808;9.968;2022-11-27T13:19:33;99673.03;;;10.07;65.43
46506;BME280;32220;49.808;9.968;2022-11-27T13:22:07;99675.00;;;10.02;65.92
46506;BME280;32220;49.808;9.968;2022-11-27T13:24:36;99685.75;;;9.99;65.81
46506;BME280;32220;49.808;9.968;2022-11-27T13:27:07;99678.16;;;9.91;66.49
46506;BME280;32220;49.808;9.968;2022-11-27T13:29:42;99671.03;;;9.75;65.92
46506;BME280;32220;49.808;9.968;2022-11-27T13:32:18;99650.56;;;9.59;66.96
46506;BME280;32220;49.808;9.968;2022-11-27T13:34:47;99655.16;;;9.75;67.30
46506;BME280;32220;49.808;9.968;2022-11-27T13:37:27;99661.94;;;9.61;66.92
46506;BME280;32220;49.808;9.968;2022-11-27T13:40:03;99656.41;;;9.47;67.36
46506;BME280;32220;49.808;9.968;2022-11-27T13:42:34;99629.84;;;9.11;67.56
46506;BME280;32220;49.808;9.968;2022-11-27T13:45:06;99639.28;;;9.17;68.21
46506;BME280;32220;49.808;9.968;2022-11-27T13:47:38;99651.56;;;9.18;68.38
46506;BME280;32220;49.808;9.968;2022-11-27T13:50:09;99625.91;;;9.01;68.87
46506;BME280;32220;49.808;9.968;2022-11-27T13:52:49;99648.06;;;8.97;69.23
46506;BME280;32220;49.808;9.968;2022-11-27T13:55:24;99641.53;;;8.85;69.51
46506;BME280;32220;49.808;9.968;2022-11-27T13:57:56;99627.94;;;8.74;69.76
46506;BME280;32220;49.808;9.968;2022-11-27T14:00:34;99624.75;;;8.66;69.86
46506;BME280;32220;49.808;9.968;2022-11-27T14:03:04;99558.66;;;8.27;70.56
46506;BME280;32220;49.808;9.968;2022-11-27T14:05:38;99606.03;;;8.52;71.00
46506;BME280;32220;49.808;9.968;2022-11-27T14:08:17;99607.97;;;8.47;71.37
46506;BME280;32220;49.808;9.968;2022-11-27T14:10:57;99568.84;;;8.14;71.74
46506;BME280;32220;49.808;9.968;2022-11-27T14:13:35;99605.69;;;8.39;71.61
46506;BME280;32220;49.808;9.968;2022-11-27T14:18:57;99603.81;;;8.19;72.12
46506;BME280;32220;49.808;9.968;2022-11-27T14:21:38;99588.47;;;8.07;72.65
46506;BME280;32220;49.808;9.968;2022-11-27T14:24:24;99598.09;;;8.08;72.72
46506;BME280;32220;49.808;9.968;2022-11-27T14:26:54;99577.38;;;7.99;72.92
46506;BME280;32220;49.808;9.968;2022-11-27T14:29:24;99593.75;;;8.07;73.17
46506;BME280;32220;49.808;9.968;2022-11-27T14:31:56;99588.47;;;8.07;73.61
46506;BME280;32220;49.808;9.968;2022-11-27T14:34:25;99553.75;;;7.96;74.14
46506;BME280;32220;49.808;9.968;2022-11-27T14:36:54;99562.47;;;7.98;73.72
46506;BME280;32220;49.808;9.968;2022-11-27T14:39:23;99566.03;;;7.97;74.00
46506;BME280;32220;49.808;9.968;2022-11-27T14:41:55;99576.84;;;7.91;74.19
46506;BME280;32220;49.808;9.968;2022-11-27T14:44:25;99574.31;;;7.88;74.38
46506;BME280;32220;49.808;9.968;2022-11-27T14:46:53;99553.72;;;7.76;74.50
46506;BME280;32220;49.808;9.968;2022-11-27T14:49:25;99550.44;;;7.69;75.04
46506;BME280;32220;49.808;9.968;2022-11-27T14:51:55;99565.47;;;7.67;74.95
46506;BME280;32220;49.808;9.968;2022-11-27T14:54:26;99555.50;;;7.53;75.46
46506;BME280;32220;49.808;9.968;2022-11-27T14:56:55;99549.84;;;7.41;75.60
46506;BME280;32220;49.808;9.968;2022-11-27T14:59:25;99561.34;;;7.38;75.68
46506;BME280;32220;49.808;9.968;2022-11-27T15:01:58;99542.69;;;7.21;76.46
46506;BME280;32220;49.808;9.968;2022-11-27T15:04:28;99548.31;;;7.12;76.65
46506;BME280;32220;49.808;9.968;2022-11-27T15:06:57;99506.38;;;6.82;77.09
46506;BME280;32220;49.808;9.968;2022-11-27T15:09:27;99559.75;;;7.11;76.98
46506;BME280;32220;49.808;9.968;2022-11-27T15:11:57;99536.41;;;7.02;77.33
46506;BME280;32220;49.808;9.968;2022-11-27T15:14:27;99527.13;;;6.92;77.83
46506;BME280;32220;49.808;9.968;2022-11-27T15:16:56;99514.16;;;6.85;77.87
46506;BME280;32220;49.808;9.968;2022-11-27T15:19:27;99504.91;;;6.75;78.31
46506;BME280;32220;49.808;9.968;2022-11-27T15:21:57;99468.84;;;6.54;78.94
46506;BME280;32220;49.808;9.968;2022-11-27T15:24:29;99478.50;;;6.54;79.31
46506;BME280;32220;49.808;9.968;2022-11-27T15:27:19;99468.34;;;6.43;80.33
46506;BME280;32220;49.808;9.968;2022-11-27T15:30:09;99446.16;;;6.27;80.97
46506;BME280;32220;49.808;9.968;2022-11-27T15:32:43;99435.97;;;6.18;81.14
46506;BME280;32220;49.808;9.968;2022-11-27T15:35:24;99448.78;;;6.27;81.06
46506;BME280;32220;49.808;9.968;2022-11-27T15:37:53;99450.72;;;6.22;82.08
46506;BME280;32220;49.808;9.968;2022-11-27T15:40:33;99456.00;;;6.20;81.95
46506;BME280;32220;49.808;9.968;2022-11-27T15:43:01;99447.28;;;6.20;82.06
46506;BME280;32220;49.808;9.968;2022-11-27T15:45:31;99445.63;;;6.17;82.11
46506;BME280;32220;49.808;9.968;2022-11-27T15:48:00;99438.69;;;6.15;82.35
46506;BME280;32220;49.808;9.968;2022-11-27T15:50:28;99444.00;;;6.13;82.66
46506;BME280;32220;49.808;9.968;2022-11-27T15:52:56;99450.22;;;6.10;82.59
46506;BME280;32220;49.808;9.968;2022-11-27T15:55:26;99437.09;;;6.10;82.85
46506;BME280;32220;49.808;9.968;2022-11-27T15:57:53;99420.50;;;6.08;82.53
46506;BME280;32220;49.808;9.968;2022-11-27T16:00:21;99421.31;;;6.10;82.61
46506;BME280;32220;49.808;9.968;2022-11-27T16:02:54;99421.34;;;6.09;82.27
46506;BME280;32220;49.808;9.968;2022-11-27T16:05:25;99401.72;;;5.94;82.62
46506;BME280;32220;49.808;9.968;2022-11-27T16:07:53;99401.72;;;5.94;82.37
46506;BME280;32220;49.808;9.968;2022-11-27T16:10:20;99351.97;;;5.63;82.70
46506;BME280;32220;49.808;9.968;2022-11-27T16:12:48;99417.38;;;5.97;82.56
46506;BME280;32220;49.808;9.968;2022-11-27T16:15:19;99420.97;;;5.95;83.08
46506;BME280;32220;49.808;9.968;2022-11-27T16:17:48;99421.06;;;5.93;82.75
46506;BME280;32220;49.808;9.968;2022-11-27T16:20:17;99429.00;;;5.92;82.68
46506;BME280;32220;49.808;9.968;2022-11-27T16:22:45;99437.94;;;5.85;82.21
46506;BME280;32220;49.808;9.968;2022-11-27T16:25:15;99468.06;;;6.02;82.22
46506;BME280;32220;49.808;9.968;2022-11-27T16:27:43;99445.63;;;5.92;82.45
46506;BME280;32220;49.808;9.968;2022-11-27T16:30:12;99434.28;;;5.90;82.49
46506;BME280;32220;49.808;9.968;2022-11-27T16:32:40;99447.22;;;5.96;82.27
46506;BME280;32220;49.808;9.968;2022-11-27T16:35:08;99424.00;;;5.83;82.36
46506;BME280;32220;49.808;9.968;2022-11-27T16:37:40;99456.63;;;6.03;82.08
46506;BME280;32220;49.808;9.968;2022-11-27T16:40:09;99418.00;;;5.79;82.01
46506;BME280;32220;49.808;9.968;2022-11-27T16:42:37;99447.34;;;5.93;82.17
46506;BME280;32220;49.808;9.968;2022-11-27T16:45:33;99393.09;;;5.64;82.10
46506;BME280;32220;49.808;9.968;2022-11-27T16:49:06;99390.63;;;5.60;82.22
46506;BME280;32220;49.808;9.968;2022-11-27T16:55:33;99455.63;;;6.06;81.94
46506;BME280;32220;49.808;9.968;2022-11-27T16:58:00;99433.00;;;6.02;82.08
46506;BME280;32220;49.808;9.968;2022-11-27T17:00:28;99359.69;;;5.68;82.08
46506;BME280;32220;49.808;9.968;2022-11-27T17:02:57;99414.38;;;6.08;82.60
46506;BME280;32220;49.808;9.968;2022-11-27T17:05:24;99390.25;;;5.97;82.79
46506;BME280;32220;49.808;9.968;2022-11-27T17:07:53;99368.41;;;5.95;82.72
46506;BME280;32220;49.808;9.968;2022-11-27T17:10:21;99354.59;;;5.90;82.80
46506;BME280;32220;49.808;9.968;2022-11-27T17:12:50;99351.09;;;5.88;82.91
46506;BME280;32220;49.808;9.968;2022-11-27T17:15:18;99366.56;;;5.97;83.16
46506;BME280;32220;49.808;9.968;2022-11-27T17:17:46;99366.47;;;6.00;82.98
46506;BME280;32220;49.808;9.968;2022-11-27T17:20:14;99366.44;;;6.01;82.83
46506;BME280;32220;49.808;9.968;2022-11-27T17:22:43;99341.50;;;5.87;82.98
46506;BME280;32220;49.808;9.968;2022-11-27T17:25:11;99362.88;;;6.02;82.97
46506;BME280;32220;49.808;9.968;2022-11-27T17:27:39;99330.06;;;5.89;83.21
46506;BME280;32220;49.808;9.968;2022-11-27T17:30:09;99359.91;;;6.11;82.92
46506;BME280;32220;49.808;9.968;2022-11-27T17:32:37;99336.59;;;6.02;83.14
46506;BME280;32220;49.808;9.968;2022-11-27T17:35:06;99327.94;;;5.99;83.21
46506;BME280;32220;49.808;9.968;2022-11-27T17:37:33;99296.34;;;5.75;83.50
46506;BME280;32220;49.808;9.968;2022-11-27T17:40:02;99260.88;;;5.64;83.42
46506;BME280;32220;49.808;9.968;2022-11-27T17:42:29;99325.13;;;6.05;83.70
46506;BME280;32220;49.808;9.968;2022-11-27T17:44:57;99321.78;;;6.00;83.74
46506;BME280;32220;49.808;9.968;2022-11-27T17:47:27;99310.66;;;5.93;83.47
